EPWR

Copernicus Wrocław Airport

Wrocław, Poland
METAR EPWR 171130Z 12009KT CAVOK 21/07 Q1020
Observed Flight Rules
Oct-17 @ 11:30 UTC (19 minutes ago) Visual Flight Rules
Wind Visibility Clouds
120° at 9 knots 10,000+ meters
  • Clear skies
Temperatures Readings
Current 21°C / 70°F
Dewpoint 7°C / 45°F
Humidity 40%
Altimeter 30.12" Hg
Pressure 1020 hPa
Elevation 121
METAR EPWR 171130Z 12009KT CAVOK 21/07 Q1020
Observed Flight Rules
Oct-17 @ 11:30 UTC
(19 minutes ago)
VFR
Wind Visibility
120° at 9 knots 10,000+ meters
Clouds
  • Clear skies
Temperature Dewpoint
21°C / 70°F 7°C / 45°F
Humidity Altimeter Pressure
40% 30.12" Hg 1020 hPa